KNBG/NBG METAR and TAF weather

Enter ICAO airport designator
Station Type Date Time Source
KNBG METAR 2022/06/28 13:55 UTC NOAA

KNBG 281355Z 08006KT 10SM SCT030 BKN130 BKN250 28/24 A3006 RMK AO2 SLP177 T2 SET T02830239 $


Station Type Date Time Source
KNBG Decoded METAR 2022/06/28 13:55 UTC NOAA

NEW ORLEANS NAVAL AIR STN, LA, United States (KNBG) 29-50N 90-01W
Jun 28, 2022 - 09:55 AM EDT / 2022.06.28 1355 UTC
Wind: from the E (080 degrees) at 7 MPH (6 KT):0
Visibility: 10 mile(s):0
Sky conditions: mostly cloudy
Temperature: 82.9 F (28.3 C)
Dew Point: 75.0 F (23.9 C)
Relative Humidity: 77%
Pressure (altimeter): 30.06 in. Hg (1017 hPa)
ob: KNBG 281355Z 08006KT 10SM SCT030 BKN130 BKN250 28/24 A3006 RMK AO2 SLP177 T2 SET T02830239
cycle: 14

Station Type Date Time Source
KNBG TAF 2022/06/28 07:03 UTC NOAA

TAF KNBG 2807/2907 07008KT 4800 VCSH BKN035CB BKN080 BKN250 QNH2994INS
TEMPO 2810/2815 VRB20G30KT 1600 TSRA BR BKN020CB BKN060 BKN250
BECMG 2816/2818 VRB06KT 9999 VCTS BKN010CB BKN040 BKN160 QNH3008INS
TEMPO 2819/2900 VRB15G25KT 4800 -TSRA BKN010CB OVC040 QNH3002INS T25/2811Z T32/2820Z FN00150

Example: see airport list